sensor_id;sensor_type;location;lat;lon;timestamp;pressure;altitude;pressure_sealevel;temperature;humidity
47280;BME280;34064;44.942;0.008;2023-02-20T00:00:51;100145.09;;;7.90;57.64
47280;BME280;34064;44.942;0.008;2023-02-20T00:03:18;100140.91;;;7.86;57.47
47280;BME280;34064;44.942;0.008;2023-02-20T00:05:46;100138.38;;;7.83;57.68
47280;BME280;34064;44.942;0.008;2023-02-20T00:08:13;100142.22;;;7.75;57.54
47280;BME280;34064;44.942;0.008;2023-02-20T00:10:41;100149.63;;;7.67;57.58
47280;BME280;34064;44.942;0.008;2023-02-20T00:13:09;100143.00;;;7.57;57.45
47280;BME280;34064;44.942;0.008;2023-02-20T00:15:36;100148.69;;;7.47;57.61
47280;BME280;34064;44.942;0.008;2023-02-20T00:18:03;100150.66;;;7.42;57.54
47280;BME280;34064;44.942;0.008;2023-02-20T00:20:32;100145.56;;;7.38;57.84
47280;BME280;34064;44.942;0.008;2023-02-20T00:23:02;100143.78;;;7.38;57.87
47280;BME280;34064;44.942;0.008;2023-02-20T00:25:29;100143.78;;;7.38;57.82
47280;BME280;34064;44.942;0.008;2023-02-20T00:27:57;100145.63;;;7.36;57.64
47280;BME280;34064;44.942;0.008;2023-02-20T00:30:24;100143.91;;;7.35;57.63
47280;BME280;34064;44.942;0.008;2023-02-20T00:32:56;100138.78;;;7.32;57.67
47280;BME280;34064;44.942;0.008;2023-02-20T00:35:25;100143.44;;;7.25;57.36
47280;BME280;34064;44.942;0.008;2023-02-20T00:37:53;100136.75;;;7.16;57.71
47280;BME280;34064;44.942;0.008;2023-02-20T00:40:23;100141.50;;;7.08;57.38
47280;BME280;34064;44.942;0.008;2023-02-20T00:42:51;100140.03;;;7.01;57.47
47280;BME280;34064;44.942;0.008;2023-02-20T00:45:19;100141.13;;;6.95;57.34
47280;BME280;34064;44.942;0.008;2023-02-20T00:47:47;100138.69;;;6.91;57.57
47280;BME280;34064;44.942;0.008;2023-02-20T00:50:15;100132.66;;;6.87;57.32
47280;BME280;34064;44.942;0.008;2023-02-20T00:52:42;100127.41;;;6.85;57.33
47280;BME280;34064;44.942;0.008;2023-02-20T00:55:09;100135.50;;;6.82;57.30
47280;BME280;34064;44.942;0.008;2023-02-20T00:57:35;100131.31;;;6.77;57.31
47280;BME280;34064;44.942;0.008;2023-02-20T01:00:03;100140.25;;;6.72;56.99
47280;BME280;34064;44.942;0.008;2023-02-20T01:02:30;100136.94;;;6.67;57.15
47280;BME280;34064;44.942;0.008;2023-02-20T01:04:56;100130.00;;;6.65;57.38
47280;BME280;34064;44.942;0.008;2023-02-20T01:07:22;100132.66;;;6.65;57.13
47280;BME280;34064;44.942;0.008;2023-02-20T01:09:49;100136.22;;;6.64;57.44
47280;BME280;34064;44.942;0.008;2023-02-20T01:12:15;100133.78;;;6.58;57.44
47280;BME280;34064;44.942;0.008;2023-02-20T01:14:42;100136.50;;;6.56;57.17
47280;BME280;34064;44.942;0.008;2023-02-20T01:17:09;100131.41;;;6.51;57.26
47280;BME280;34064;44.942;0.008;2023-02-20T01:19:37;100135.03;;;6.49;57.36
47280;BME280;34064;44.942;0.008;2023-02-20T01:22:03;100135.19;;;6.44;57.31
47280;BME280;34064;44.942;0.008;2023-02-20T01:24:31;100124.75;;;6.41;57.20
47280;BME280;34064;44.942;0.008;2023-02-20T01:26:58;100135.41;;;6.38;57.54
47280;BME280;34064;44.942;0.008;2023-02-20T01:29:26;100137.38;;;6.33;57.38
47280;BME280;34064;44.942;0.008;2023-02-20T01:31:52;100135.75;;;6.29;57.52
47280;BME280;34064;44.942;0.008;2023-02-20T01:34:20;100135.94;;;6.24;57.51
47280;BME280;34064;44.942;0.008;2023-02-20T01:36:49;100133.44;;;6.21;57.53
47280;BME280;34064;44.942;0.008;2023-02-20T01:39:26;100128.16;;;6.21;57.52
47280;BME280;34064;44.942;0.008;2023-02-20T01:42:00;100129.00;;;6.21;57.79
47280;BME280;34064;44.942;0.008;2023-02-20T01:44:32;100129.13;;;6.18;58.01
47280;BME280;34064;44.942;0.008;2023-02-20T01:47:04;100123.84;;;6.18;57.85
47280;BME280;34064;44.942;0.008;2023-02-20T01:49:40;100123.91;;;6.17;57.83
47280;BME280;34064;44.942;0.008;2023-02-20T01:54:48;100121.59;;;6.07;57.71
47280;BME280;34064;44.942;0.008;2023-02-20T01:57:19;100127.00;;;6.04;57.64
47280;BME280;34064;44.942;0.008;2023-02-20T01:59:48;100125.47;;;5.97;57.38
47280;BME280;34064;44.942;0.008;2023-02-20T02:02:16;100124.81;;;5.90;57.63
47280;BME280;34064;44.942;0.008;2023-02-20T02:04:43;100117.03;;;5.87;57.41
47280;BME280;34064;44.942;0.008;2023-02-20T02:07:11;100119.88;;;5.81;57.55
47280;BME280;34064;44.942;0.008;2023-02-20T02:09:58;100118.53;;;5.69;57.72
47280;BME280;34064;44.942;0.008;2023-02-20T02:12:27;100117.72;;;5.67;57.46
47280;BME280;34064;44.942;0.008;2023-02-20T02:14:54;100123.97;;;5.65;57.44
47280;BME280;34064;44.942;0.008;2023-02-20T02:32:28;100123.28;;;5.59;57.42
47280;BME280;34064;44.942;0.008;2023-02-20T02:43:07;100109.88;;;5.66;57.39
47280;BME280;34064;44.942;0.008;2023-02-20T02:45:47;100114.31;;;5.65;57.51
47280;BME280;34064;44.942;0.008;2023-02-20T02:48:34;100108.47;;;5.55;57.37
47280;BME280;34064;44.942;0.008;2023-02-20T02:51:15;100115.16;;;5.40;57.33
47280;BME280;34064;44.942;0.008;2023-02-20T02:54:03;100114.38;;;5.37;57.34
47280;BME280;34064;44.942;0.008;2023-02-20T02:56:35;100111.91;;;5.32;57.45
47280;BME280;34064;44.942;0.008;2023-02-20T02:59:03;100115.63;;;5.26;57.18
47280;BME280;34064;44.942;0.008;2023-02-20T03:01:34;100109.66;;;5.21;57.54
47280;BME280;34064;44.942;0.008;2023-02-20T03:04:04;100107.94;;;5.20;57.47
47280;BME280;34064;44.942;0.008;2023-02-20T03:06:37;100104.47;;;5.18;57.28
47280;BME280;34064;44.942;0.008;2023-02-20T03:09:16;100104.72;;;5.10;57.32
47280;BME280;34064;44.942;0.008;2023-02-20T03:11:57;100108.38;;;5.06;57.51
47280;BME280;34064;44.942;0.008;2023-02-20T03:15:02;100108.44;;;5.05;57.52
47280;BME280;34064;44.942;0.008;2023-02-20T03:21:13;100103.19;;;5.05;57.63
47280;BME280;34064;44.942;0.008;2023-02-20T03:23:45;100100.47;;;5.06;57.52
47280;BME280;34064;44.942;0.008;2023-02-20T03:26:19;100098.59;;;5.10;57.61
47280;BME280;34064;44.942;0.008;2023-02-20T03:29:13;100098.38;;;5.16;57.55
47280;BME280;34064;44.942;0.008;2023-02-20T03:31:55;100093.94;;;5.18;58.23
47280;BME280;34064;44.942;0.008;2023-02-20T03:34:41;100094.03;;;5.15;58.09
47280;BME280;34064;44.942;0.008;2023-02-20T03:37:29;100095.97;;;5.10;58.13
47280;BME280;34064;44.942;0.008;2023-02-20T03:40:16;100098.81;;;5.04;57.93
47280;BME280;34064;44.942;0.008;2023-02-20T03:43:05;100105.19;;;4.96;57.86
47280;BME280;34064;44.942;0.008;2023-02-20T03:45:49;100092.16;;;4.92;58.07
47280;BME280;34064;44.942;0.008;2023-02-20T03:48:38;100104.56;;;4.88;58.00
47280;BME280;34064;44.942;0.008;2023-02-20T03:51:05;100101.16;;;4.86;57.68
47280;BME280;34064;44.942;0.008;2023-02-20T03:53:32;100094.19;;;4.83;58.13
47280;BME280;34064;44.942;0.008;2023-02-20T03:56:02;100104.69;;;4.85;58.36
47280;BME280;34064;44.942;0.008;2023-02-20T03:58:32;100094.94;;;4.87;58.32
47280;BME280;34064;44.942;0.008;2023-02-20T04:01:03;100103.66;;;4.89;58.31
47280;BME280;34064;44.942;0.008;2023-02-20T04:03:34;100090.50;;;4.89;58.39
47280;BME280;34064;44.942;0.008;2023-02-20T04:06:06;100087.88;;;4.89;58.40
47280;BME280;34064;44.942;0.008;2023-02-20T04:08:38;100092.53;;;4.81;58.60
47280;BME280;34064;44.942;0.008;2023-02-20T04:13:41;100094.59;;;4.71;58.49
47280;BME280;34064;44.942;0.008;2023-02-20T04:16:10;100092.91;;;4.68;58.30
47280;BME280;34064;44.942;0.008;2023-02-20T04:18:36;100090.41;;;4.64;58.42
47280;BME280;34064;44.942;0.008;2023-02-20T04:21:10;100089.72;;;4.59;58.74
47280;BME280;34064;44.942;0.008;2023-02-20T04:23:45;100094.09;;;4.58;58.72
47280;BME280;34064;44.942;0.008;2023-02-20T04:26:18;100082.66;;;4.59;58.43
47280;BME280;34064;44.942;0.008;2023-02-20T04:28:46;100088.84;;;4.58;58.77
47280;BME280;34064;44.942;0.008;2023-02-20T04:31:14;100086.19;;;4.60;58.90
47280;BME280;34064;44.942;0.008;2023-02-20T04:33:42;100087.94;;;4.59;58.97
47280;BME280;34064;44.942;0.008;2023-02-20T04:36:09;100084.50;;;4.57;58.75
47280;BME280;34064;44.942;0.008;2023-02-20T04:38:36;100082.66;;;4.59;58.89
47280;BME280;34064;44.942;0.008;2023-02-20T04:41:04;100074.88;;;4.56;59.37
47280;BME280;34064;44.942;0.008;2023-02-20T04:43:30;100076.59;;;4.57;59.46
47280;BME280;34064;44.942;0.008;2023-02-20T04:45:58;100077.38;;;4.61;59.04
47280;BME280;34064;44.942;0.008;2023-02-20T04:48:25;100076.47;;;4.62;59.28
47280;BME280;34064;44.942;0.008;2023-02-20T04:50:52;100079.84;;;4.65;59.60
47280;BME280;34064;44.942;0.008;2023-02-20T04:53:19;100079.75;;;4.68;59.47
47280;BME280;34064;44.942;0.008;2023-02-20T04:55:46;100080.63;;;4.69;59.73
47280;BME280;34064;44.942;0.008;2023-02-20T04:58:12;100091.81;;;4.76;59.35
47280;BME280;34064;44.942;0.008;2023-02-20T05:00:39;100094.41;;;4.77;59.57
47280;BME280;34064;44.942;0.008;2023-02-20T05:03:05;100088.22;;;4.78;59.55
47280;BME280;34064;44.942;0.008;2023-02-20T05:05:32;100091.63;;;4.82;59.57
47280;BME280;34064;44.942;0.008;2023-02-20T05:08:03;100088.13;;;4.81;60.01
47280;BME280;34064;44.942;0.008;2023-02-20T05:10:30;100090.72;;;4.83;59.93
47280;BME280;34064;44.942;0.008;2023-02-20T05:12:58;100095.88;;;4.86;60.31
47280;BME280;34064;44.942;0.008;2023-02-20T05:15:25;100082.72;;;4.86;60.43
47280;BME280;34064;44.942;0.008;2023-02-20T05:17:52;100093.13;;;4.89;60.42
47280;BME280;34064;44.942;0.008;2023-02-20T05:20:19;100089.59;;;4.90;60.27
47280;BME280;34064;44.942;0.008;2023-02-20T05:22:46;100096.78;;;4.85;61.67
47280;BME280;34064;44.942;0.008;2023-02-20T05:25:14;100089.69;;;4.87;60.45
47280;BME280;34064;44.942;0.008;2023-02-20T05:27:40;100079.34;;;4.81;60.94
47280;BME280;34064;44.942;0.008;2023-02-20T05:30:08;100089.19;;;4.76;61.54
47280;BME280;34064;44.942;0.008;2023-02-20T05:32:35;100083.88;;;4.77;60.73
47280;BME280;34064;44.942;0.008;2023-02-20T05:35:01;100083.09;;;4.74;61.43
47280;BME280;34064;44.942;0.008;2023-02-20T05:37:28;100085.75;;;4.74;61.63
47280;BME280;34064;44.942;0.008;2023-02-20T05:39:54;100074.16;;;4.79;60.81
47280;BME280;34064;44.942;0.008;2023-02-20T05:42:21;100073.19;;;4.82;60.83
47280;BME280;34064;44.942;0.008;2023-02-20T05:44:48;100081.09;;;4.82;61.42
47280;BME280;34064;44.942;0.008;2023-02-20T05:47:16;100081.09;;;4.82;61.40
47280;BME280;34064;44.942;0.008;2023-02-20T05:49:44;100090.75;;;4.81;61.69
47280;BME280;34064;44.942;0.008;2023-02-20T05:52:12;100090.66;;;4.84;61.70
47280;BME280;34064;44.942;0.008;2023-02-20T05:54:41;100087.88;;;4.89;61.78
47280;BME280;34064;44.942;0.008;2023-02-20T05:57:11;100082.50;;;4.92;61.22
47280;BME280;34064;44.942;0.008;2023-02-20T05:59:38;100085.06;;;4.94;61.23
47280;BME280;34064;44.942;0.008;2023-02-20T06:02:06;100095.75;;;4.89;61.75
47280;BME280;34064;44.942;0.008;2023-02-20T06:04:34;100098.41;;;4.89;61.46
47280;BME280;34064;44.942;0.008;2023-02-20T06:07:01;100098.31;;;4.92;61.19
47280;BME280;34064;44.942;0.008;2023-02-20T06:09:29;100086.03;;;4.91;61.61
47280;BME280;34064;44.942;0.008;2023-02-20T06:11:59;100085.97;;;4.93;61.30
47280;BME280;34064;44.942;0.008;2023-02-20T06:14:27;100079.78;;;4.95;61.54
47280;BME280;34064;44.942;0.008;2023-02-20T06:16:56;100079.63;;;5.00;61.51
47280;BME280;34064;44.942;0.008;2023-02-20T06:19:25;100073.38;;;5.03;61.33
47280;BME280;34064;44.942;0.008;2023-02-20T06:21:53;100071.56;;;5.05;61.26
47280;BME280;34064;44.942;0.008;2023-02-20T06:24:21;100069.72;;;5.07;60.98
47280;BME280;34064;44.942;0.008;2023-02-20T06:26:49;100068.00;;;5.06;61.28
47280;BME280;34064;44.942;0.008;2023-02-20T06:29:19;100067.06;;;5.08;61.08
47280;BME280;34064;44.942;0.008;2023-02-20T06:31:47;100062.63;;;5.09;61.38
47280;BME280;34064;44.942;0.008;2023-02-20T06:34:15;100062.72;;;5.06;61.55
47280;BME280;34064;44.942;0.008;2023-02-20T06:36:43;100059.19;;;5.07;61.45
47280;BME280;34064;44.942;0.008;2023-02-20T06:39:12;100055.66;;;5.08;61.41
47280;BME280;34064;44.942;0.008;2023-02-20T06:41:40;100048.56;;;5.10;61.18
47280;BME280;34064;44.942;0.008;2023-02-20T06:44:08;100045.00;;;5.11;61.11
47280;BME280;34064;44.942;0.008;2023-02-20T06:46:35;100048.63;;;5.08;61.87
47280;BME280;34064;44.942;0.008;2023-02-20T06:49:03;100046.84;;;5.09;61.53
47280;BME280;34064;44.942;0.008;2023-02-20T06:51:32;100052.09;;;5.09;61.46
47280;BME280;34064;44.942;0.008;2023-02-20T06:53:59;100044.19;;;5.09;61.37
47280;BME280;34064;44.942;0.008;2023-02-20T06:56:31;100052.09;;;5.09;61.20
47280;BME280;34064;44.942;0.008;2023-02-20T06:58:59;100044.28;;;5.06;61.07
47280;BME280;34064;44.942;0.008;2023-02-20T07:01:28;100044.34;;;5.04;61.42
47280;BME280;34064;44.942;0.008;2023-02-20T07:03:57;100048.97;;;4.97;61.49
47280;BME280;34064;44.942;0.008;2023-02-20T07:06:24;100056.03;;;4.97;61.99
47280;BME280;34064;44.942;0.008;2023-02-20T07:08:51;100056.78;;;5.00;61.55
47280;BME280;34064;44.942;0.008;2023-02-20T07:11:19;100049.69;;;5.03;61.22
47280;BME280;34064;44.942;0.008;2023-02-20T07:13:46;100042.59;;;5.05;61.27
47280;BME280;34064;44.942;0.008;2023-02-20T07:16:13;100048.66;;;5.07;61.33
47280;BME280;34064;44.942;0.008;2023-02-20T07:18:39;100049.47;;;5.09;61.12
47280;BME280;34064;44.942;0.008;2023-02-20T07:21:06;100054.63;;;5.12;61.34
47280;BME280;34064;44.942;0.008;2023-02-20T07:23:32;100054.56;;;5.13;61.31
47280;BME280;34064;44.942;0.008;2023-02-20T07:25:59;100063.59;;;5.06;61.70
47280;BME280;34064;44.942;0.008;2023-02-20T07:28:25;100054.66;;;5.10;61.59
47280;BME280;34064;44.942;0.008;2023-02-20T07:30:51;100060.75;;;5.12;61.44
47280;BME280;34064;44.942;0.008;2023-02-20T07:33:18;100057.97;;;5.17;61.31
47280;BME280;34064;44.942;0.008;2023-02-20T07:35:45;100056.25;;;5.16;61.84
47280;BME280;34064;44.942;0.008;2023-02-20T07:38:12;100057.88;;;5.20;61.56
47280;BME280;34064;44.942;0.008;2023-02-20T07:40:38;100050.78;;;5.22;61.15
47280;BME280;34064;44.942;0.008;2023-02-20T07:43:05;100055.13;;;5.23;61.37
47280;BME280;34064;44.942;0.008;2023-02-20T07:45:31;100061.25;;;5.24;61.33
47280;BME280;34064;44.942;0.008;2023-02-20T07:47:57;100050.66;;;5.25;61.12
47280;BME280;34064;44.942;0.008;2023-02-20T07:50:24;100062.91;;;5.26;61.54
47280;BME280;34064;44.942;0.008;2023-02-20T07:52:50;100047.09;;;5.26;61.34
47280;BME280;34064;44.942;0.008;2023-02-20T07:55:17;100053.19;;;5.28;61.43
47280;BME280;34064;44.942;0.008;2023-02-20T07:57:46;100040.72;;;5.34;61.26
47280;BME280;34064;44.942;0.008;2023-02-20T08:00:15;100035.34;;;5.37;61.46
47280;BME280;34064;44.942;0.008;2023-02-20T08:02:42;100035.13;;;5.43;61.09
47280;BME280;34064;44.942;0.008;2023-02-20T08:05:09;100042.09;;;5.44;61.09
47280;BME280;34064;44.942;0.008;2023-02-20T08:07:35;100041.09;;;5.48;61.29
47280;BME280;34064;44.942;0.008;2023-02-20T08:10:03;100032.94;;;5.54;61.17
47280;BME280;34064;44.942;0.008;2023-02-20T08:12:29;100034.56;;;5.58;61.20
47280;BME280;34064;44.942;0.008;2023-02-20T08:14:55;100026.50;;;5.63;61.08
47280;BME280;34064;44.942;0.008;2023-02-20T08:17:22;100036.16;;;5.62;61.27
47280;BME280;34064;44.942;0.008;2023-02-20T08:19:48;100041.34;;;5.66;61.36
47280;BME280;34064;44.942;0.008;2023-02-20T08:22:14;100037.78;;;5.67;61.39
47280;BME280;34064;44.942;0.008;2023-02-20T08:24:41;100035.16;;;5.67;61.40
47280;BME280;34064;44.942;0.008;2023-02-20T08:27:07;100030.69;;;5.69;62.05
47280;BME280;34064;44.942;0.008;2023-02-20T08:29:33;100031.34;;;5.74;61.58
47280;BME280;34064;44.942;0.008;2023-02-20T08:32:00;100028.53;;;5.80;61.60
47280;BME280;34064;44.942;0.008;2023-02-20T08:34:26;100027.53;;;5.83;61.64
47280;BME280;34064;44.942;0.008;2023-02-20T08:36:52;100021.28;;;5.85;61.77
47280;BME280;34064;44.942;0.008;2023-02-20T08:39:19;100021.16;;;5.88;61.86
47280;BME280;34064;44.942;0.008;2023-02-20T08:41:46;100016.56;;;5.93;61.67
47280;BME280;34064;44.942;0.008;2023-02-20T08:44:13;100009.34;;;5.99;61.51
47280;BME280;34064;44.942;0.008;2023-02-20T08:46:49;100006.50;;;6.05;61.78
47280;BME280;34064;44.942;0.008;2023-02-20T08:49:17;99993.88;;;6.13;61.53
47280;BME280;34064;44.942;0.008;2023-02-20T08:51:47;99993.63;;;6.19;61.63
47280;BME280;34064;44.942;0.008;2023-02-20T08:54:15;99988.91;;;6.28;61.84
47280;BME280;34064;44.942;0.008;2023-02-20T08:56:42;99990.38;;;6.35;61.86
47280;BME280;34064;44.942;0.008;2023-02-20T08:59:08;99983.81;;;6.45;61.71
47280;BME280;34064;44.942;0.008;2023-02-20T09:01:35;99981.56;;;6.56;61.93
47280;BME280;34064;44.942;0.008;2023-02-20T09:04:01;99974.22;;;6.65;62.16
47280;BME280;34064;44.942;0.008;2023-02-20T09:06:28;99971.97;;;6.76;62.00
47280;BME280;34064;44.942;0.008;2023-02-20T09:08:55;99962.72;;;6.86;61.98
47280;BME280;34064;44.942;0.008;2023-02-20T09:11:21;99962.47;;;6.93;62.13
47280;BME280;34064;44.942;0.008;2023-02-20T09:13:48;99962.84;;;7.04;62.18
47280;BME280;34064;44.942;0.008;2023-02-20T09:16:17;99954.81;;;7.07;62.26
47280;BME280;34064;44.942;0.008;2023-02-20T09:18:44;99955.41;;;7.14;62.41
47280;BME280;34064;44.942;0.008;2023-02-20T09:21:12;99952.34;;;7.23;62.53
47280;BME280;34064;44.942;0.008;2023-02-20T09:23:39;99948.44;;;7.32;62.30
47280;BME280;34064;44.942;0.008;2023-02-20T09:26:05;99936.59;;;7.41;62.64
47280;BME280;34064;44.942;0.008;2023-02-20T09:28:32;99940.72;;;7.46;62.46
47280;BME280;34064;44.942;0.008;2023-02-20T09:30:58;99935.94;;;7.55;62.51
47280;BME280;34064;44.942;0.008;2023-02-20T09:33:26;99930.31;;;7.62;62.70
47280;BME280;34064;44.942;0.008;2023-02-20T09:35:53;99925.44;;;7.72;62.46
47280;BME280;34064;44.942;0.008;2023-02-20T09:38:23;99919.88;;;7.78;62.44
47280;BME280;34064;44.942;0.008;2023-02-20T09:40:57;99915.84;;;7.89;63.15
47280;BME280;34064;44.942;0.008;2023-02-20T09:46:16;99900.66;;;8.11;62.35
47280;BME280;34064;44.942;0.008;2023-02-20T09:51:16;99888.13;;;8.33;62.81
47280;BME280;34064;44.942;0.008;2023-02-20T09:56:25;99882.50;;;8.58;63.03
47280;BME280;34064;44.942;0.008;2023-02-20T10:02:03;99865.25;;;8.84;62.83
47280;BME280;34064;44.942;0.008;2023-02-20T10:04:42;99861.09;;;8.96;62.76
47280;BME280;34064;44.942;0.008;2023-02-20T10:09:45;99848.56;;;9.16;63.09
47280;BME280;34064;44.942;0.008;2023-02-20T10:15:15;99839.25;;;9.41;63.01
47280;BME280;34064;44.942;0.008;2023-02-20T10:23:19;99834.22;;;9.68;63.10
47280;BME280;34064;44.942;0.008;2023-02-20T10:25:53;99822.16;;;9.78;63.04
47280;BME280;34064;44.942;0.008;2023-02-20T10:28:21;99823.41;;;9.87;63.17
47280;BME280;34064;44.942;0.008;2023-02-20T10:30:58;99814.16;;;9.94;63.01
47280;BME280;34064;44.942;0.008;2023-02-20T10:33:43;99796.75;;;10.05;62.99
47280;BME280;34064;44.942;0.008;2023-02-20T10:36:12;99791.75;;;10.14;62.92
47280;BME280;34064;44.942;0.008;2023-02-20T10:38:53;99784.69;;;10.29;62.95
47280;BME280;34064;44.942;0.008;2023-02-20T10:41:32;99779.50;;;10.42;62.82
47280;BME280;34064;44.942;0.008;2023-02-20T10:44:10;99766.91;;;10.60;62.64
47280;BME280;34064;44.942;0.008;2023-02-20T10:47:11;99752.66;;;10.76;62.63
47280;BME280;34064;44.942;0.008;2023-02-20T10:52:22;99751.41;;;10.96;62.50
47280;BME280;34064;44.942;0.008;2023-02-20T10:54:54;99747.31;;;11.05;62.74
47280;BME280;34064;44.942;0.008;2023-02-20T10:57:37;99745.38;;;11.21;62.39
47280;BME280;34064;44.942;0.008;2023-02-20T11:00:13;99734.91;;;11.33;62.30
47280;BME280;34064;44.942;0.008;2023-02-20T11:02:48;99739.22;;;11.48;62.29
47280;BME280;34064;44.942;0.008;2023-02-20T11:05:20;99727.03;;;11.59;62.04
47280;BME280;34064;44.942;0.008;2023-02-20T11:07:50;99726.41;;;11.68;61.93
47280;BME280;34064;44.942;0.008;2023-02-20T11:10:17;99715.06;;;11.79;61.99
47280;BME280;34064;44.942;0.008;2023-02-20T11:12:50;99722.00;;;11.94;61.88
47280;BME280;34064;44.942;0.008;2023-02-20T11:15:23;99698.84;;;12.09;61.65
47280;BME280;34064;44.942;0.008;2023-02-20T11:17:53;99692.56;;;12.23;62.03
47280;BME280;34064;44.942;0.008;2023-02-20T11:23:03;99672.19;;;12.61;61.58
47280;BME280;34064;44.942;0.008;2023-02-20T11:25:31;99668.53;;;12.75;61.38
47280;BME280;34064;44.942;0.008;2023-02-20T11:28:20;99661.63;;;12.97;61.28
47280;BME280;34064;44.942;0.008;2023-02-20T11:30:56;99652.16;;;13.17;61.13
47280;BME280;34064;44.942;0.008;2023-02-20T11:33:24;99647.38;;;13.33;61.09
47280;BME280;34064;44.942;0.008;2023-02-20T11:36:07;99635.56;;;13.49;60.71
47280;BME280;34064;44.942;0.008;2023-02-20T11:38:35;99632.72;;;13.63;60.51
47280;BME280;34064;44.942;0.008;2023-02-20T11:43:43;99619.22;;;14.00;59.83
47280;BME280;34064;44.942;0.008;2023-02-20T11:46:21;99604.41;;;14.19;59.87
47280;BME280;34064;44.942;0.008;2023-02-20T11:49:04;99595.53;;;14.41;59.70
47280;BME280;34064;44.942;0.008;2023-02-20T11:54:16;99567.28;;;14.82;58.68
47280;BME280;34064;44.942;0.008;2023-02-20T11:57:04;99564.06;;;15.00;58.24
47280;BME280;34064;44.942;0.008;2023-02-20T11:59:38;99552.22;;;15.14;58.13
47280;BME280;34064;44.942;0.008;2023-02-20T12:02:21;99540.19;;;15.29;57.88
47280;BME280;34064;44.942;0.008;2023-02-20T12:05:08;99537.66;;;15.49;58.06
47280;BME280;34064;44.942;0.008;2023-02-20T12:07:38;99530.28;;;15.63;57.14
47280;BME280;34064;44.942;0.008;2023-02-20T12:12:54;99513.53;;;15.92;57.16
47280;BME280;34064;44.942;0.008;2023-02-20T12:15:24;99504.13;;;16.07;56.68
47280;BME280;34064;44.942;0.008;2023-02-20T12:21:20;99485.31;;;16.38;56.12
47280;BME280;34064;44.942;0.008;2023-02-20T12:26:50;99465.56;;;16.68;55.39
47280;BME280;34064;44.942;0.008;2023-02-20T12:34:53;99426.00;;;17.20;54.29
47280;BME280;34064;44.942;0.008;2023-02-20T12:40:02;99407.41;;;17.46;53.81
47280;BME280;34064;44.942;0.008;2023-02-20T12:43:05;99395.03;;;17.63;53.36
47280;BME280;34064;44.942;0.008;2023-02-20T12:54:22;99372.34;;;17.75;52.00
47280;BME280;34064;44.942;0.008;2023-02-20T12:56:56;99365.00;;;17.77;52.07
47280;BME280;34064;44.942;0.008;2023-02-20T13:04:54;99335.72;;;18.02;51.02
47280;BME280;34064;44.942;0.008;2023-02-20T13:10:16;99315.19;;;18.37;49.93
47280;BME280;34064;44.942;0.008;2023-02-20T13:12:41;99307.97;;;18.56;50.37
47280;BME280;34064;44.942;0.008;2023-02-20T13:16:08;99295.50;;;18.81;49.52
47280;BME280;34064;44.942;0.008;2023-02-20T13:18:36;99280.34;;;19.07;48.31
47280;BME280;34064;44.942;0.008;2023-02-20T13:21:10;99271.34;;;19.24;48.42
47280;BME280;34064;44.942;0.008;2023-02-20T13:23:39;99264.47;;;19.30;47.93
47280;BME280;34064;44.942;0.008;2023-02-20T13:29:15;99262.19;;;19.60;47.74
47280;BME280;34064;44.942;0.008;2023-02-20T13:31:50;99254.50;;;19.73;47.01
47280;BME280;34064;44.942;0.008;2023-02-20T13:36:47;99240.56;;;19.86;45.26
47280;BME280;34064;44.942;0.008;2023-02-20T13:39:39;99243.06;;;19.96;45.66
47280;BME280;34064;44.942;0.008;2023-02-20T13:42:25;99236.84;;;20.04;45.90
47280;BME280;34064;44.942;0.008;2023-02-20T13:44:52;99227.41;;;20.16;45.19
47280;BME280;34064;44.942;0.008;2023-02-20T13:55:17;99196.63;;;20.67;44.62
47280;BME280;34064;44.942;0.008;2023-02-20T13:57:54;99178.91;;;20.72;44.13
47280;BME280;34064;44.942;0.008;2023-02-20T14:03:25;99179.88;;;20.88;42.88
47280;BME280;34064;44.942;0.008;2023-02-20T14:06:15;99174.94;;;21.00;43.12
47280;BME280;34064;44.942;0.008;2023-02-20T14:08:45;99174.03;;;21.08;43.42
47280;BME280;34064;44.942;0.008;2023-02-20T14:11:35;99165.72;;;21.17;42.95
47280;BME280;34064;44.942;0.008;2023-02-20T14:14:07;99155.56;;;21.28;42.10
47280;BME280;34064;44.942;0.008;2023-02-20T14:16:39;99154.06;;;21.25;40.95
47280;BME280;34064;44.942;0.008;2023-02-20T14:19:25;99161.91;;;21.35;41.91
47280;BME280;34064;44.942;0.008;2023-02-20T14:21:53;99156.38;;;21.51;41.23
47280;BME280;34064;44.942;0.008;2023-02-20T14:24:25;99149.50;;;21.72;42.31
47280;BME280;34064;44.942;0.008;2023-02-20T14:26:53;99146.66;;;21.89;41.04
47280;BME280;34064;44.942;0.008;2023-02-20T14:29:26;99131.50;;;22.03;41.30
47280;BME280;34064;44.942;0.008;2023-02-20T14:31:55;99130.38;;;22.12;40.00
47280;BME280;34064;44.942;0.008;2023-02-20T14:37:23;99116.16;;;22.33;39.45
47280;BME280;34064;44.942;0.008;2023-02-20T14:40:19;99121.56;;;22.33;39.96
47280;BME280;34064;44.942;0.008;2023-02-20T14:42:51;99116.41;;;22.38;40.29
47280;BME280;34064;44.942;0.008;2023-02-20T14:45:23;99108.44;;;22.45;40.21
47280;BME280;34064;44.942;0.008;2023-02-20T14:48:00;99103.84;;;22.61;39.61
47280;BME280;34064;44.942;0.008;2023-02-20T14:50:31;99098.25;;;22.62;38.39
47280;BME280;34064;44.942;0.008;2023-02-20T14:53:08;99088.88;;;22.80;39.41
47280;BME280;34064;44.942;0.008;2023-02-20T14:55:37;99078.97;;;22.87;38.52
47280;BME280;34064;44.942;0.008;2023-02-20T14:58:17;99085.81;;;23.04;38.25
47280;BME280;34064;44.942;0.008;2023-02-20T15:00:45;99071.66;;;23.24;38.29
47280;BME280;34064;44.942;0.008;2023-02-20T15:03:26;99061.59;;;23.40;38.64
47280;BME280;34064;44.942;0.008;2023-02-20T15:06:02;99049.19;;;23.52;37.49
47280;BME280;34064;44.942;0.008;2023-02-20T15:08:32;99048.50;;;23.72;37.60
47280;BME280;34064;44.942;0.008;2023-02-20T15:13:37;99040.66;;;23.83;37.16
47280;BME280;34064;44.942;0.008;2023-02-20T15:16:11;99019.34;;;24.09;36.91
47280;BME280;34064;44.942;0.008;2023-02-20T15:18:41;99032.44;;;23.98;35.99
47280;BME280;34064;44.942;0.008;2023-02-20T15:21:11;99026.63;;;24.02;36.35
47280;BME280;34064;44.942;0.008;2023-02-20T15:23:40;99018.56;;;24.15;36.15